Time;durP1;ratioP1;P1;durP2;ratioP2;P2;SDS_P1;SDS_P2;PMS_P1;PMS_P2;Temp;Humidity;BMP_temperature;BMP_pressure;BME280_temperature;BME280_humidity;BME280_pressure;Samples;Min_cycle;Max_cycle;Signal;HPM_P1;HPM_P2
2022/10/09 00:00:03;;;;;;;2.00;1.90;;;;;;;;;;4960403;28;20226;-57
2022/10/09 00:02:29;;;;;;;2.03;1.93;;;;;;;;;;4948232;28;20227;-57
2022/10/09 00:04:55;;;;;;;2.40;2.30;;;;;;;;;;4949622;28;21283;-57
2022/10/09 00:07:21;;;;;;;2.00;1.90;;;;;;;;;;4955993;28;20219;-58
2022/10/09 00:09:47;;;;;;;1.60;1.60;;;;;;;;;;4941722;28;21075;-58
2022/10/09 00:12:13;;;;;;;1.70;1.70;;;;;;;;;;4958103;28;20265;-58
2022/10/09 00:14:39;;;;;;;1.60;1.60;;;;;;;;;;4939854;28;20309;-58
2022/10/09 00:17:05;;;;;;;1.47;1.47;;;;;;;;;;4936423;28;20247;-58
2022/10/09 00:19:31;;;;;;;1.40;1.40;;;;;;;;;;4958025;28;20225;-58
2022/10/09 00:21:57;;;;;;;1.33;1.33;;;;;;;;;;4932729;28;20251;-57
2022/10/09 00:24:23;;;;;;;1.20;1.20;;;;;;;;;;4947690;28;20226;-58
2022/10/09 00:26:49;;;;;;;1.60;1.60;;;;;;;;;;4946523;28;20237;-58
2022/10/09 00:29:15;;;;;;;1.53;1.53;;;;;;;;;;4943800;28;20241;-57
2022/10/09 00:31:41;;;;;;;1.73;1.70;;;;;;;;;;4933105;28;20218;-58
2022/10/09 00:34:07;;;;;;;1.73;1.70;;;;;;;;;;4940669;28;20226;-58
2022/10/09 00:36:33;;;;;;;1.33;1.33;;;;;;;;;;4939705;28;20584;-58
2022/10/09 00:38:59;;;;;;;1.27;1.27;;;;;;;;;;4926504;28;20735;-58
2022/10/09 00:41:25;;;;;;;1.33;1.33;;;;;;;;;;4941907;28;20248;-57
2022/10/09 00:43:52;;;;;;;1.40;1.40;;;;;;;;;;4959684;28;20245;-58
2022/10/09 00:46:20;;;;;;;1.67;1.67;;;;;;;;;;4936013;28;20703;-58
2022/10/09 00:48:47;;;;;;;1.60;1.60;;;;;;;;;;4951018;28;20749;-57
2022/10/09 00:51:13;;;;;;;1.50;1.50;;;;;;;;;;4951177;28;20696;-58
2022/10/09 00:53:39;;;;;;;1.57;1.57;;;;;;;;;;4952617;28;20245;-57
2022/10/09 00:56:05;;;;;;;1.47;1.47;;;;;;;;;;4953403;28;20250;-57
2022/10/09 00:58:31;;;;;;;1.63;1.63;;;;;;;;;;4949302;28;20234;-58
2022/10/09 01:00:57;;;;;;;1.73;1.70;;;;;;;;;;4946133;28;20222;-58
2022/10/09 01:03:23;;;;;;;1.60;1.60;;;;;;;;;;4957193;28;20678;-58
2022/10/09 01:05:59;;;;;;;2.00;1.90;;;;;;;;;;4940763;28;20235;-58
2022/10/09 01:08:27;;;;;;;1.37;1.37;;;;;;;;;;4960463;28;20261;-58
2022/10/09 01:10:57;;;;;;;1.30;1.30;;;;;;;;;;4936257;28;20238;-58
2022/10/09 01:13:28;;;;;;;0.90;0.90;;;;;;;;;;4946345;28;20231;-57
2022/10/09 01:15:54;;;;;;;1.23;1.23;;;;;;;;;;4963524;28;21080;-58
2022/10/09 01:18:22;;;;;;;1.43;1.43;;;;;;;;;;4951268;28;20281;-58
2022/10/09 01:21:07;;;;;;;1.10;1.10;;;;;;;;;;4938378;28;20227;-58
2022/10/09 01:23:40;;;;;;;1.00;1.00;;;;;;;;;;4937958;28;20232;-58
2022/10/09 01:26:11;;;;;;;1.20;1.20;;;;;;;;;;4948230;28;20500;-57
2022/10/09 01:28:37;;;;;;;1.00;1.00;;;;;;;;;;4960608;28;20702;-57
2022/10/09 01:31:03;;;;;;;1.10;1.10;;;;;;;;;;4955113;28;20257;-58
2022/10/09 01:33:30;;;;;;;0.90;0.90;;;;;;;;;;4935526;28;21581;-58
2022/10/09 01:35:56;;;;;;;1.10;1.10;;;;;;;;;;4957914;28;20257;-58
2022/10/09 01:38:22;;;;;;;1.10;1.10;;;;;;;;;;4954517;28;20222;-58
2022/10/09 01:40:48;;;;;;;1.47;1.47;;;;;;;;;;4949060;28;20609;-57
2022/10/09 01:43:14;;;;;;;1.20;1.20;;;;;;;;;;4944717;28;20753;-58
2022/10/09 01:45:40;;;;;;;1.20;1.20;;;;;;;;;;4955220;28;20235;-58
2022/10/09 01:48:07;;;;;;;1.30;1.30;;;;;;;;;;4932656;28;20253;-57
2022/10/09 01:50:34;;;;;;;1.30;1.30;;;;;;;;;;4951713;28;20227;-58
2022/10/09 01:53:00;;;;;;;1.10;1.10;;;;;;;;;;4944951;28;20239;-58
2022/10/09 01:55:41;;;;;;;1.30;1.30;;;;;;;;;;4928828;28;20227;-57
2022/10/09 01:58:10;;;;;;;1.40;1.40;;;;;;;;;;4963531;28;21174;-57
2022/10/09 02:00:37;;;;;;;1.60;1.60;;;;;;;;;;4949552;28;20246;-58
2022/10/09 02:03:04;;;;;;;1.40;1.40;;;;;;;;;;4952124;28;20230;-58
2022/10/09 02:05:30;;;;;;;1.47;1.47;;;;;;;;;;4930355;28;20258;-57
2022/10/09 02:07:56;;;;;;;1.50;1.50;;;;;;;;;;4944711;28;20353;-58
2022/10/09 02:10:22;;;;;;;0.90;0.90;;;;;;;;;;4960684;28;20282;-57
2022/10/09 02:12:50;;;;;;;1.60;1.60;;;;;;;;;;4949564;28;20626;-58
2022/10/09 02:15:16;;;;;;;1.57;1.57;;;;;;;;;;4941806;28;20259;-58
2022/10/09 02:17:43;;;;;;;1.00;1.00;;;;;;;;;;4940627;28;20233;-57
2022/10/09 02:20:12;;;;;;;0.87;0.87;;;;;;;;;;4953409;28;20219;-58
2022/10/09 02:22:39;;;;;;;1.63;1.63;;;;;;;;;;4949141;28;20235;-57
2022/10/09 02:25:05;;;;;;;1.20;1.20;;;;;;;;;;4945751;28;20672;-58
2022/10/09 02:27:31;;;;;;;1.30;1.30;;;;;;;;;;4945124;28;20227;-57
2022/10/09 02:29:57;;;;;;;1.30;1.30;;;;;;;;;;4955131;28;20722;-58
2022/10/09 02:32:23;;;;;;;1.30;1.30;;;;;;;;;;4961074;28;20615;-58
2022/10/09 02:34:49;;;;;;;1.40;1.40;;;;;;;;;;4953968;28;20223;-58
2022/10/09 02:37:15;;;;;;;1.30;1.30;;;;;;;;;;4938763;28;20233;-58
2022/10/09 02:39:41;;;;;;;1.43;1.43;;;;;;;;;;4946294;28;20314;-57
2022/10/09 02:42:07;;;;;;;1.20;1.20;;;;;;;;;;4944678;28;20316;-58
2022/10/09 02:44:33;;;;;;;1.40;1.40;;;;;;;;;;4951705;28;20243;-58
2022/10/09 02:46:59;;;;;;;1.50;1.50;;;;;;;;;;4953788;28;20245;-58
2022/10/09 02:49:25;;;;;;;0.90;0.90;;;;;;;;;;4941079;28;21280;-58
2022/10/09 02:51:51;;;;;;;0.90;0.90;;;;;;;;;;4952767;28;20292;-58
2022/10/09 02:54:17;;;;;;;0.80;0.80;;;;;;;;;;4930358;28;20583;-57
2022/10/09 02:56:43;;;;;;;0.97;0.97;;;;;;;;;;4955060;28;20643;-57
2022/10/09 02:59:09;;;;;;;0.90;0.90;;;;;;;;;;4955954;28;20234;-58
2022/10/09 03:01:35;;;;;;;0.90;0.90;;;;;;;;;;4948079;28;20231;-58
2022/10/09 03:04:01;;;;;;;0.90;0.90;;;;;;;;;;4944013;28;20224;-58
2022/10/09 03:06:27;;;;;;;1.10;1.10;;;;;;;;;;4950000;28;20219;-58
2022/10/09 03:08:53;;;;;;;0.80;0.80;;;;;;;;;;4946078;28;20309;-58
2022/10/09 03:11:20;;;;;;;0.90;0.90;;;;;;;;;;4948803;28;20217;-57
2022/10/09 03:13:46;;;;;;;0.80;0.80;;;;;;;;;;4944342;28;20850;-58
2022/10/09 03:16:15;;;;;;;1.10;1.10;;;;;;;;;;4953253;28;20226;-57
2022/10/09 03:18:41;;;;;;;0.90;0.90;;;;;;;;;;4929088;28;20230;-58
2022/10/09 03:21:08;;;;;;;1.00;1.00;;;;;;;;;;4956818;28;20606;-58
2022/10/09 03:23:34;;;;;;;0.90;0.90;;;;;;;;;;4935795;28;20231;-57
2022/10/09 03:26:00;;;;;;;1.00;1.00;;;;;;;;;;4942292;28;20226;-57
2022/10/09 03:28:26;;;;;;;0.80;0.80;;;;;;;;;;4933437;28;21218;-58
2022/10/09 03:30:52;;;;;;;1.13;1.13;;;;;;;;;;4955133;28;20226;-57
2022/10/09 03:33:18;;;;;;;1.17;1.17;;;;;;;;;;4955509;28;20231;-57
2022/10/09 03:35:45;;;;;;;0.80;0.80;;;;;;;;;;4949410;28;20367;-58
2022/10/09 03:38:11;;;;;;;0.80;0.80;;;;;;;;;;4946689;28;20237;-58
2022/10/09 03:40:37;;;;;;;0.80;0.80;;;;;;;;;;4950102;28;20585;-58
2022/10/09 03:43:03;;;;;;;1.07;1.07;;;;;;;;;;4957804;28;20604;-58
2022/10/09 03:45:29;;;;;;;0.80;0.80;;;;;;;;;;4945879;28;20895;-57
2022/10/09 03:47:55;;;;;;;0.97;0.97;;;;;;;;;;4948641;28;20636;-58
2022/10/09 03:50:21;;;;;;;0.80;0.80;;;;;;;;;;4938419;28;21221;-58
2022/10/09 03:52:47;;;;;;;0.93;0.93;;;;;;;;;;4965349;28;20279;-57
2022/10/09 03:55:13;;;;;;;0.93;0.93;;;;;;;;;;4937624;28;21349;-57
2022/10/09 03:57:38;;;;;;;0.90;0.90;;;;;;;;;;4954142;28;20477;-58
2022/10/09 04:00:05;;;;;;;0.90;0.90;;;;;;;;;;4941681;28;20214;-58
2022/10/09 04:02:31;;;;;;;0.90;0.90;;;;;;;;;;4937774;28;20655;-58
2022/10/09 04:04:57;;;;;;;0.90;0.90;;;;;;;;;;4939097;28;20233;-58
2022/10/09 04:07:23;;;;;;;1.10;1.10;;;;;;;;;;4955533;28;20656;-58
2022/10/09 04:09:49;;;;;;;0.97;0.97;;;;;;;;;;4933493;28;20691;-58
2022/10/09 04:12:15;;;;;;;0.93;0.93;;;;;;;;;;4931927;28;20639;-58
2022/10/09 04:14:41;;;;;;;0.97;0.97;;;;;;;;;;4948438;28;20679;-58
2022/10/09 04:17:07;;;;;;;0.90;0.90;;;;;;;;;;4926693;28;20239;-58
2022/10/09 04:19:33;;;;;;;0.80;0.80;;;;;;;;;;4935588;28;20692;-57
2022/10/09 04:21:59;;;;;;;1.00;1.00;;;;;;;;;;4948815;28;20233;-58
2022/10/09 04:24:25;;;;;;;0.80;0.80;;;;;;;;;;4951175;28;20293;-58
2022/10/09 04:26:51;;;;;;;1.10;1.10;;;;;;;;;;4944406;28;20247;-58
2022/10/09 04:29:17;;;;;;;0.93;0.93;;;;;;;;;;4946696;28;20230;-58
2022/10/09 04:31:43;;;;;;;0.90;0.90;;;;;;;;;;4938208;28;20231;-58
2022/10/09 04:34:09;;;;;;;1.00;1.00;;;;;;;;;;4928750;28;20229;-58
2022/10/09 04:36:35;;;;;;;0.90;0.90;;;;;;;;;;4932936;28;20287;-58
2022/10/09 04:39:01;;;;;;;0.90;0.90;;;;;;;;;;4932346;28;20231;-57
2022/10/09 04:41:27;;;;;;;1.07;1.07;;;;;;;;;;4940250;28;20234;-58
2022/10/09 04:43:54;;;;;;;0.93;0.93;;;;;;;;;;4942892;28;20245;-58
2022/10/09 04:46:19;;;;;;;0.90;0.90;;;;;;;;;;4938323;28;20229;-57
2022/10/09 04:48:46;;;;;;;0.90;0.90;;;;;;;;;;4944862;28;20686;-58
2022/10/09 04:51:12;;;;;;;1.00;1.00;;;;;;;;;;4935251;28;20281;-58
2022/10/09 04:53:38;;;;;;;0.87;0.87;;;;;;;;;;4949796;28;20235;-58
2022/10/09 04:56:04;;;;;;;1.00;1.00;;;;;;;;;;4952814;28;20243;-58
2022/10/09 04:58:31;;;;;;;1.00;1.00;;;;;;;;;;4945201;28;20227;-58
2022/10/09 05:00:57;;;;;;;0.80;0.80;;;;;;;;;;4948542;28;20230;-57
2022/10/09 05:03:23;;;;;;;0.90;0.90;;;;;;;;;;4933991;28;20617;-58
2022/10/09 05:05:48;;;;;;;1.00;1.00;;;;;;;;;;4951844;28;20631;-58
2022/10/09 05:08:14;;;;;;;0.97;0.97;;;;;;;;;;4941947;28;20230;-58
2022/10/09 05:10:40;;;;;;;0.90;0.90;;;;;;;;;;4924294;28;20229;-58
2022/10/09 05:13:06;;;;;;;0.90;0.90;;;;;;;;;;4947223;28;20698;-57
2022/10/09 05:15:35;;;;;;;0.80;0.80;;;;;;;;;;4945815;28;20219;-58
2022/10/09 05:18:01;;;;;;;0.90;0.90;;;;;;;;;;4938864;28;20242;-58
2022/10/09 05:20:27;;;;;;;0.80;0.80;;;;;;;;;;4940639;28;20261;-58
2022/10/09 05:22:53;;;;;;;0.90;0.90;;;;;;;;;;4947356;28;20222;-57
2022/10/09 05:25:19;;;;;;;0.80;0.80;;;;;;;;;;4954688;28;20249;-57
2022/10/09 05:27:45;;;;;;;0.80;0.80;;;;;;;;;;4948996;28;20235;-58
2022/10/09 05:30:11;;;;;;;0.70;0.70;;;;;;;;;;4941348;28;20920;-57
2022/10/09 05:32:37;;;;;;;1.00;1.00;;;;;;;;;;4933256;28;20611;-58
2022/10/09 05:35:03;;;;;;;0.90;0.90;;;;;;;;;;4944301;28;20232;-58
2022/10/09 05:37:29;;;;;;;1.00;1.00;;;;;;;;;;4954169;28;20817;-58
2022/10/09 05:39:55;;;;;;;1.00;1.00;;;;;;;;;;4950480;28;20223;-58
2022/10/09 05:42:21;;;;;;;1.10;1.10;;;;;;;;;;4956351;28;20226;-57
2022/10/09 05:44:46;;;;;;;1.10;1.10;;;;;;;;;;4950188;28;20265;-58
2022/10/09 05:47:16;;;;;;;0.93;0.93;;;;;;;;;;4954232;28;20222;-58
2022/10/09 05:49:42;;;;;;;0.90;0.90;;;;;;;;;;4958176;28;20234;-57
2022/10/09 05:52:08;;;;;;;1.03;1.03;;;;;;;;;;4943116;28;20265;-58
2022/10/09 05:54:34;;;;;;;1.00;1.00;;;;;;;;;;4938885;28;20226;-58
2022/10/09 05:57:00;;;;;;;1.10;1.10;;;;;;;;;;4955830;28;21609;-58
2022/10/09 05:59:26;;;;;;;1.10;1.10;;;;;;;;;;4949975;28;20231;-58
2022/10/09 06:01:53;;;;;;;1.07;1.07;;;;;;;;;;4947411;28;20305;-58
2022/10/09 06:04:20;;;;;;;0.90;0.90;;;;;;;;;;4955326;28;20627;-58
2022/10/09 06:06:47;;;;;;;0.80;0.80;;;;;;;;;;4953965;28;20228;-57
2022/10/09 06:09:13;;;;;;;0.90;0.90;;;;;;;;;;4954921;28;20311;-58
2022/10/09 06:11:39;;;;;;;1.10;1.10;;;;;;;;;;4943036;28;20346;-58
2022/10/09 06:14:06;;;;;;;1.17;1.17;;;;;;;;;;4940822;28;20235;-58
2022/10/09 06:16:32;;;;;;;0.90;0.90;;;;;;;;;;4956301;28;20657;-58
2022/10/09 06:18:58;;;;;;;1.00;1.00;;;;;;;;;;4956121;28;20231;-58
2022/10/09 06:21:25;;;;;;;0.90;0.90;;;;;;;;;;4969495;28;20220;-58
2022/10/09 06:23:51;;;;;;;0.90;0.90;;;;;;;;;;4943152;28;20239;-58
2022/10/09 06:26:17;;;;;;;0.90;0.90;;;;;;;;;;4936674;28;20227;-58
2022/10/09 06:28:43;;;;;;;0.90;0.90;;;;;;;;;;4924154;28;20234;-58
2022/10/09 06:31:10;;;;;;;1.00;1.00;;;;;;;;;;4950448;28;20234;-58
2022/10/09 06:33:37;;;;;;;0.90;0.90;;;;;;;;;;4941887;28;20717;-57
2022/10/09 06:36:03;;;;;;;0.80;0.80;;;;;;;;;;4936431;28;20754;-57
2022/10/09 06:38:29;;;;;;;0.80;0.80;;;;;;;;;;4946487;28;20246;-57
2022/10/09 06:40:55;;;;;;;1.00;1.00;;;;;;;;;;4953355;28;20211;-57
2022/10/09 06:43:21;;;;;;;0.90;0.90;;;;;;;;;;4953947;28;20264;-58
2022/10/09 06:45:47;;;;;;;1.00;1.00;;;;;;;;;;4952372;28;20215;-57
2022/10/09 06:48:13;;;;;;;0.90;0.90;;;;;;;;;;4953517;28;20671;-57
2022/10/09 06:50:39;;;;;;;0.90;0.90;;;;;;;;;;4964985;28;20253;-57
2022/10/09 06:53:05;;;;;;;1.00;1.00;;;;;;;;;;4946413;28;20230;-57
2022/10/09 06:55:31;;;;;;;1.03;1.03;;;;;;;;;;4960194;28;20226;-57
2022/10/09 06:57:57;;;;;;;0.80;0.80;;;;;;;;;;4939202;28;20658;-57
2022/10/09 07:00:23;;;;;;;0.90;0.90;;;;;;;;;;4946669;28;20229;-57
2022/10/09 07:02:49;;;;;;;1.03;1.03;;;;;;;;;;4926935;28;20738;-58
2022/10/09 07:05:15;;;;;;;0.90;0.90;;;;;;;;;;4950169;28;21229;-57
2022/10/09 07:07:41;;;;;;;1.00;1.00;;;;;;;;;;4922716;28;20318;-57
2022/10/09 07:10:08;;;;;;;0.80;0.80;;;;;;;;;;4956076;28;20221;-57
2022/10/09 07:12:34;;;;;;;0.90;0.90;;;;;;;;;;4931867;28;20602;-58
2022/10/09 07:15:00;;;;;;;0.90;0.90;;;;;;;;;;4959418;28;20225;-57
2022/10/09 07:17:26;;;;;;;0.80;0.80;;;;;;;;;;4945976;28;20239;-58
2022/10/09 07:19:52;;;;;;;0.80;0.80;;;;;;;;;;4936605;28;21047;-57
2022/10/09 07:22:18;;;;;;;0.83;0.83;;;;;;;;;;4950981;28;20317;-58
2022/10/09 07:24:44;;;;;;;0.90;0.90;;;;;;;;;;4934306;28;20253;-58
2022/10/09 07:27:10;;;;;;;0.97;0.97;;;;;;;;;;4951974;28;20249;-58
2022/10/09 07:29:36;;;;;;;0.90;0.90;;;;;;;;;;4943096;28;20344;-57
2022/10/09 07:32:02;;;;;;;0.90;0.90;;;;;;;;;;4940873;28;20232;-58
2022/10/09 07:34:28;;;;;;;0.90;0.90;;;;;;;;;;4925990;28;20224;-58
2022/10/09 07:36:55;;;;;;;0.90;0.90;;;;;;;;;;4943713;28;20245;-58
2022/10/09 07:39:21;;;;;;;0.70;0.70;;;;;;;;;;4950284;28;20231;-57
2022/10/09 07:41:49;;;;;;;1.00;1.00;;;;;;;;;;4945211;28;20306;-58
2022/10/09 07:44:15;;;;;;;1.00;1.00;;;;;;;;;;4954394;28;20233;-58
2022/10/09 07:46:41;;;;;;;0.80;0.80;;;;;;;;;;4945447;28;20246;-58
2022/10/09 07:49:06;;;;;;;0.90;0.90;;;;;;;;;;4935231;28;20255;-58
2022/10/09 07:51:32;;;;;;;0.90;0.90;;;;;;;;;;4947141;28;20314;-58
2022/10/09 07:54:00;;;;;;;0.93;0.93;;;;;;;;;;4937538;28;20259;-58
2022/10/09 07:56:36;;;;;;;0.97;0.97;;;;;;;;;;4943848;28;20695;-58
2022/10/09 07:59:12;;;;;;;1.00;1.00;;;;;;;;;;4927815;28;20240;-58
2022/10/09 08:01:38;;;;;;;0.80;0.80;;;;;;;;;;4936446;28;20227;-59
2022/10/09 08:04:04;;;;;;;0.87;0.87;;;;;;;;;;4915023;28;20240;-58
2022/10/09 08:06:31;;;;;;;0.80;0.80;;;;;;;;;;4926588;28;20231;-58
2022/10/09 08:08:57;;;;;;;0.70;0.70;;;;;;;;;;4935770;28;20284;-58
2022/10/09 08:11:24;;;;;;;0.83;0.83;;;;;;;;;;4945470;28;20233;-58
2022/10/09 08:13:50;;;;;;;0.80;0.80;;;;;;;;;;4944005;28;20229;-58
2022/10/09 08:16:16;;;;;;;0.80;0.80;;;;;;;;;;4945636;28;20273;-58
2022/10/09 08:18:42;;;;;;;0.80;0.80;;;;;;;;;;4949608;28;20235;-58
2022/10/09 08:21:10;;;;;;;0.73;0.73;;;;;;;;;;4937538;28;20805;-58
2022/10/09 08:23:36;;;;;;;1.00;1.00;;;;;;;;;;4937168;28;20655;-58
2022/10/09 08:26:02;;;;;;;0.90;0.90;;;;;;;;;;4938488;28;20249;-58
2022/10/09 08:28:27;;;;;;;0.77;0.77;;;;;;;;;;4923552;28;20226;-58
2022/10/09 08:30:53;;;;;;;0.80;0.80;;;;;;;;;;4944233;28;20749;-59
2022/10/09 08:33:20;;;;;;;0.70;0.70;;;;;;;;;;4932316;28;20291;-59
2022/10/09 08:35:50;;;;;;;0.80;0.80;;;;;;;;;;4916775;28;20270;-58
2022/10/09 08:38:16;;;;;;;0.67;0.67;;;;;;;;;;4914042;28;20227;-59
2022/10/09 08:40:48;;;;;;;0.80;0.80;;;;;;;;;;4920970;28;20241;-59
2022/10/09 08:43:15;;;;;;;0.73;0.73;;;;;;;;;;4923801;28;20233;-59
2022/10/09 08:45:41;;;;;;;0.90;0.90;;;;;;;;;;4940273;28;20230;-59
2022/10/09 08:48:09;;;;;;;0.70;0.70;;;;;;;;;;4942926;28;21374;-59
2022/10/09 08:50:37;;;;;;;0.70;0.70;;;;;;;;;;4940272;28;20224;-59
2022/10/09 08:53:05;;;;;;;0.70;0.70;;;;;;;;;;4936371;28;20238;-59
2022/10/09 08:55:51;;;;;;;0.70;0.70;;;;;;;;;;4969868;28;20228;-59
2022/10/09 08:58:18;;;;;;;0.80;0.80;;;;;;;;;;4927065;28;20379;-59
2022/10/09 09:00:44;;;;;;;0.80;0.80;;;;;;;;;;4946606;28;20658;-59
2022/10/09 09:03:29;;;;;;;0.80;0.80;;;;;;;;;;4929249;28;20685;-59
2022/10/09 09:06:14;;;;;;;1.00;1.00;;;;;;;;;;4934406;28;20486;-59
2022/10/09 09:09:00;;;;;;;0.90;0.90;;;;;;;;;;4949129;28;20229;-59
2022/10/09 09:11:34;;;;;;;0.90;0.90;;;;;;;;;;4912911;28;20230;-59
2022/10/09 09:14:11;;;;;;;0.80;0.80;;;;;;;;;;4935514;28;20314;-59
2022/10/09 09:16:46;;;;;;;0.70;0.70;;;;;;;;;;4945472;28;20716;-59
2022/10/09 09:19:15;;;;;;;0.90;0.90;;;;;;;;;;4926824;28;20227;-59
2022/10/09 09:21:43;;;;;;;0.70;0.70;;;;;;;;;;4948749;28;20791;-59
2022/10/09 09:24:13;;;;;;;0.85;0.85;;;;;;;;;;4932542;28;20962;-59
2022/10/09 09:26:39;;;;;;;0.70;0.70;;;;;;;;;;4907683;28;20298;-59
2022/10/09 09:29:05;;;;;;;0.90;0.90;;;;;;;;;;4936257;28;20271;-59
2022/10/09 09:31:34;;;;;;;0.90;0.90;;;;;;;;;;4959039;28;20219;-59
2022/10/09 09:34:05;;;;;;;0.70;0.70;;;;;;;;;;4939423;28;20235;-59
2022/10/09 09:36:35;;;;;;;0.82;0.82;;;;;;;;;;4938388;28;20665;-59
2022/10/09 09:39:01;;;;;;;0.80;0.80;;;;;;;;;;4955825;28;20863;-59
2022/10/09 09:41:27;;;;;;;0.73;0.73;;;;;;;;;;4933939;28;20235;-59
2022/10/09 09:43:53;;;;;;;0.80;0.80;;;;;;;;;;4934070;28;20273;-59
2022/10/09 09:46:20;;;;;;;0.80;0.80;;;;;;;;;;4926424;28;20617;-60
2022/10/09 09:48:47;;;;;;;0.82;0.82;;;;;;;;;;4923772;28;20716;-59
2022/10/09 09:51:16;;;;;;;0.70;0.70;;;;;;;;;;4938905;28;20309;-59
2022/10/09 09:53:42;;;;;;;0.80;0.80;;;;;;;;;;4912406;28;20768;-59
2022/10/09 09:56:08;;;;;;;0.80;0.80;;;;;;;;;;4947789;28;20222;-59
2022/10/09 09:58:38;;;;;;;0.77;0.77;;;;;;;;;;4917215;28;20227;-59
2022/10/09 10:01:05;;;;;;;0.70;0.70;;;;;;;;;;4901390;28;20585;-59
2022/10/09 10:03:31;;;;;;;0.80;0.80;;;;;;;;;;4919187;28;20783;-60
2022/10/09 10:05:57;;;;;;;0.70;0.70;;;;;;;;;;4927387;28;20740;-60
2022/10/09 10:08:24;;;;;;;0.80;0.80;;;;;;;;;;4938312;28;20214;-59
2022/10/09 10:10:51;;;;;;;0.80;0.80;;;;;;;;;;4928179;28;20316;-60
2022/10/09 10:13:20;;;;;;;0.80;0.80;;;;;;;;;;4923145;28;20688;-61
2022/10/09 10:15:50;;;;;;;0.90;0.90;;;;;;;;;;4925938;28;20260;-59
2022/10/09 10:18:17;;;;;;;0.75;0.75;;;;;;;;;;4930301;28;20222;-59
2022/10/09 10:20:44;;;;;;;0.70;0.70;;;;;;;;;;4936412;28;20220;-60
2022/10/09 10:23:28;;;;;;;0.70;0.70;;;;;;;;;;4931767;28;20789;-60
2022/10/09 10:25:55;;;;;;;0.70;0.70;;;;;;;;;;4930203;28;20321;-60
2022/10/09 10:28:23;;;;;;;0.70;0.70;;;;;;;;;;4931979;28;20257;-61
2022/10/09 10:30:49;;;;;;;0.70;0.70;;;;;;;;;;4923405;28;20333;-60
2022/10/09 10:33:22;;;;;;;0.70;0.70;;;;;;;;;;4908882;28;20228;-59
2022/10/09 10:35:51;;;;;;;0.70;0.70;;;;;;;;;;4944206;28;20224;-60
2022/10/09 10:38:38;;;;;;;0.70;0.70;;;;;;;;;;4924023;28;20623;-61
2022/10/09 10:41:07;;;;;;;0.70;0.70;;;;;;;;;;4940845;28;20232;-60
2022/10/09 10:43:53;;;;;;;0.70;0.70;;;;;;;;;;4931927;28;20231;-60
2022/10/09 10:46:25;;;;;;;0.73;0.73;;;;;;;;;;4941411;28;21124;-60
2022/10/09 10:48:51;;;;;;;0.70;0.70;;;;;;;;;;4942410;28;20243;-61
2022/10/09 10:51:30;;;;;;;0.60;0.60;;;;;;;;;;4944963;28;20289;-61
2022/10/09 10:54:05;;;;;;;0.70;0.70;;;;;;;;;;4947699;28;20234;-60
2022/10/09 10:56:35;;;;;;;0.68;0.68;;;;;;;;;;4949393;28;20337;-61
2022/10/09 10:59:04;;;;;;;0.60;0.60;;;;;;;;;;4941384;28;20223;-61
2022/10/09 11:01:34;;;;;;;0.60;0.60;;;;;;;;;;4949340;28;20522;-60
2022/10/09 11:04:08;;;;;;;0.70;0.70;;;;;;;;;;4923218;28;20221;-60
2022/10/09 11:06:37;;;;;;;0.70;0.70;;;;;;;;;;4943673;28;20325;-60
2022/10/09 11:09:09;;;;;;;0.68;0.68;;;;;;;;;;4943452;28;20238;-62
2022/10/09 11:11:48;;;;;;;0.70;0.70;;;;;;;;;;4962982;28;20710;-60
2022/10/09 11:14:17;;;;;;;0.80;0.80;;;;;;;;;;4936627;28;20235;-60
2022/10/09 11:16:46;;;;;;;0.77;0.77;;;;;;;;;;4943897;28;20243;-60
2022/10/09 11:19:16;;;;;;;0.60;0.60;;;;;;;;;;4963101;28;20302;-61
2022/10/09 11:21:49;;;;;;;0.70;0.70;;;;;;;;;;4949448;28;20245;-61
2022/10/09 11:24:22;;;;;;;0.60;0.60;;;;;;;;;;4937835;28;20222;-59
2022/10/09 11:26:57;;;;;;;0.70;0.70;;;;;;;;;;4956878;28;20251;-59
2022/10/09 11:29:24;;;;;;;0.60;0.60;;;;;;;;;;4920421;28;20765;-61
2022/10/09 11:31:53;;;;;;;0.63;0.63;;;;;;;;;;4932833;28;20222;-61
2022/10/09 11:34:20;;;;;;;0.70;0.70;;;;;;;;;;4934965;28;20245;-61
2022/10/09 11:36:46;;;;;;;0.60;0.60;;;;;;;;;;4947972;28;20288;-61
2022/10/09 11:39:13;;;;;;;0.65;0.65;;;;;;;;;;4939532;28;20234;-61
2022/10/09 11:41:39;;;;;;;0.70;0.70;;;;;;;;;;4953341;28;20215;-60
2022/10/09 11:44:15;;;;;;;0.60;0.60;;;;;;;;;;4941459;28;20234;-61
2022/10/09 11:46:46;;;;;;;0.60;0.60;;;;;;;;;;4927601;28;20320;-62
2022/10/09 11:49:17;;;;;;;0.68;0.68;;;;;;;;;;4942112;28;20230;-61
2022/10/09 11:51:48;;;;;;;0.60;0.60;;;;;;;;;;4939957;28;25068;-61
2022/10/09 11:54:16;;;;;;;0.60;0.60;;;;;;;;;;4951086;28;20252;-61
2022/10/09 11:56:52;;;;;;;0.60;0.60;;;;;;;;;;4921526;28;20224;-60
2022/10/09 11:59:28;;;;;;;0.60;0.60;;;;;;;;;;4957247;28;20319;-61
2022/10/09 12:01:54;;;;;;;0.60;0.60;;;;;;;;;;4928693;28;20336;-61
2022/10/09 12:04:21;;;;;;;0.65;0.65;;;;;;;;;;4952100;28;20726;-60
2022/10/09 12:06:55;;;;;;;0.70;0.70;;;;;;;;;;4942728;28;20229;-60
2022/10/09 12:09:21;;;;;;;0.60;0.60;;;;;;;;;;4939064;28;20881;-60
2022/10/09 12:12:06;;;;;;;0.60;0.60;;;;;;;;;;4951092;28;20230;-58
2022/10/09 12:14:33;;;;;;;0.70;0.70;;;;;;;;;;4931611;28;20747;-60
2022/10/09 12:16:59;;;;;;;0.70;0.70;;;;;;;;;;4948805;28;20250;-60
2022/10/09 12:19:35;;;;;;;0.60;0.60;;;;;;;;;;4949682;28;20235;-60
2022/10/09 12:22:03;;;;;;;0.60;0.60;;;;;;;;;;4937891;28;20229;-60
2022/10/09 12:24:42;;;;;;;0.70;0.70;;;;;;;;;;4940993;28;20241;-60
2022/10/09 12:27:08;;;;;;;0.70;0.70;;;;;;;;;;4955201;28;20235;-60
2022/10/09 12:29:44;;;;;;;0.70;0.70;;;;;;;;;;4910873;28;20605;-58
2022/10/09 12:32:26;;;;;;;0.77;0.77;;;;;;;;;;4925942;28;20299;-59
2022/10/09 12:34:52;;;;;;;0.70;0.70;;;;;;;;;;4927825;28;20240;-60
2022/10/09 12:37:19;;;;;;;0.70;0.70;;;;;;;;;;4930000;28;20227;-59
2022/10/09 12:39:45;;;;;;;0.75;0.75;;;;;;;;;;4929291;28;21123;-59
2022/10/09 12:42:16;;;;;;;0.80;0.80;;;;;;;;;;4943464;28;20232;-59
2022/10/09 12:44:42;;;;;;;0.80;0.80;;;;;;;;;;4937818;28;20450;-59
2022/10/09 12:47:08;;;;;;;0.80;0.80;;;;;;;;;;4933817;28;21902;-60
2022/10/09 12:49:34;;;;;;;0.80;0.80;;;;;;;;;;4939529;28;20226;-60
2022/10/09 12:52:00;;;;;;;0.80;0.80;;;;;;;;;;4935082;28;20579;-59
2022/10/09 12:54:27;;;;;;;0.90;0.90;;;;;;;;;;4943074;28;20233;-59
2022/10/09 12:56:54;;;;;;;0.80;0.80;;;;;;;;;;4951178;28;20237;-59
2022/10/09 12:59:20;;;;;;;0.80;0.80;;;;;;;;;;4932780;28;20230;-59
2022/10/09 13:01:46;;;;;;;0.80;0.80;;;;;;;;;;4932572;28;20600;-61
2022/10/09 13:04:24;;;;;;;0.80;0.80;;;;;;;;;;4941433;28;20236;-58
2022/10/09 13:06:50;;;;;;;0.80;0.80;;;;;;;;;;4941152;28;21224;-60
2022/10/09 13:09:32;;;;;;;0.80;0.80;;;;;;;;;;4932655;28;20228;-59
2022/10/09 13:11:59;;;;;;;0.90;0.90;;;;;;;;;;4911901;28;20281;-56
2022/10/09 13:14:44;;;;;;;1.00;1.00;;;;;;;;;;4907816;28;20242;-54
2022/10/09 13:17:43;;;;;;;1.05;1.05;;;;;;;;;;4930004;28;20239;-56
2022/10/09 13:20:11;;;;;;;1.05;1.05;;;;;;;;;;4909716;28;20254;-54
2022/10/09 13:22:37;;;;;;;1.50;1.50;;;;;;;;;;4920178;28;20446;-56
2022/10/09 13:25:04;;;;;;;1.00;1.00;;;;;;;;;;4925698;28;20222;-54
2022/10/09 13:27:31;;;;;;;1.27;1.27;;;;;;;;;;4914847;28;20223;-57
2022/10/09 13:29:57;;;;;;;0.80;0.80;;;;;;;;;;4903569;28;20314;-56
2022/10/09 13:32:23;;;;;;;0.90;0.90;;;;;;;;;;4909378;28;20284;-55
2022/10/09 13:34:49;;;;;;;0.90;0.90;;;;;;;;;;4885743;28;20231;-57
2022/10/09 13:37:16;;;;;;;0.90;0.90;;;;;;;;;;4932104;28;20302;-55
2022/10/09 13:39:42;;;;;;;0.90;0.90;;;;;;;;;;4925947;28;20223;-56
2022/10/09 13:42:10;;;;;;;1.15;1.15;;;;;;;;;;4908580;28;20227;-57
2022/10/09 13:44:36;;;;;;;1.08;1.08;;;;;;;;;;4882250;28;20241;-56
2022/10/09 13:47:02;;;;;;;0.90;0.90;;;;;;;;;;4928559;28;20227;-55
2022/10/09 13:49:28;;;;;;;1.10;1.10;;;;;;;;;;4933903;28;20500;-57
2022/10/09 13:51:53;;;;;;;0.90;0.90;;;;;;;;;;4919307;28;20291;-58
2022/10/09 13:54:19;;;;;;;0.90;0.90;;;;;;;;;;4938910;28;20270;-55
2022/10/09 13:56:45;;;;;;;0.90;0.90;;;;;;;;;;4925156;28;20598;-57
2022/10/09 13:59:11;;;;;;;0.90;0.90;;;;;;;;;;4897361;28;20697;-56
2022/10/09 14:01:37;;;;;;;1.00;1.00;;;;;;;;;;4908064;28;22075;-55
2022/10/09 14:04:03;;;;;;;0.90;0.90;;;;;;;;;;4902520;28;20354;-56
2022/10/09 14:06:29;;;;;;;1.00;1.00;;;;;;;;;;4917874;28;20282;-56
2022/10/09 14:08:56;;;;;;;1.00;1.00;;;;;;;;;;4888248;28;20579;-57
2022/10/09 14:11:22;;;;;;;0.88;0.88;;;;;;;;;;4899771;28;20261;-55
2022/10/09 14:13:48;;;;;;;0.90;0.90;;;;;;;;;;4924939;28;20888;-57
2022/10/09 14:16:14;;;;;;;0.90;0.90;;;;;;;;;;4923497;28;20589;-56
2022/10/09 14:18:40;;;;;;;0.90;0.90;;;;;;;;;;4911865;28;20568;-56
2022/10/09 14:21:10;;;;;;;1.00;1.00;;;;;;;;;;4907737;28;20234;-55
2022/10/09 14:23:36;;;;;;;1.10;1.10;;;;;;;;;;4909170;28;20708;-59
2022/10/09 14:26:03;;;;;;;1.00;1.00;;;;;;;;;;4934122;28;20223;-63
2022/10/09 14:28:29;;;;;;;0.90;0.90;;;;;;;;;;4934511;28;20579;-57
2022/10/09 14:30:55;;;;;;;0.90;0.90;;;;;;;;;;4949294;28;20773;-61
2022/10/09 14:33:21;;;;;;;0.90;0.90;;;;;;;;;;4953263;28;20234;-61
2022/10/09 14:35:47;;;;;;;0.93;0.93;;;;;;;;;;4949345;28;20260;-59
2022/10/09 14:38:13;;;;;;;0.90;0.90;;;;;;;;;;4941705;28;20576;-62
2022/10/09 14:40:42;;;;;;;1.00;1.00;;;;;;;;;;4930064;28;20270;-62
2022/10/09 14:43:08;;;;;;;1.00;1.00;;;;;;;;;;4922916;28;20226;-62
2022/10/09 14:45:34;;;;;;;1.00;1.00;;;;;;;;;;4938084;28;20252;-62